sensor_id;sensor_type;location;lat;lon;timestamp;P1;durP1;ratioP1;P2;durP2;ratioP2
54139;SDS011;40046;53.254;5.900;2023-12-14T00:01:45;12.52;;;5.82;;
54139;SDS011;40046;53.254;5.900;2023-12-14T00:04:11;13.15;;;6.15;;
54139;SDS011;40046;53.254;5.900;2023-12-14T00:06:38;11.55;;;5.43;;
54139;SDS011;40046;53.254;5.900;2023-12-14T00:09:04;10.05;;;5.38;;
54139;SDS011;40046;53.254;5.900;2023-12-14T00:11:30;14.60;;;5.63;;
54139;SDS011;40046;53.254;5.900;2023-12-14T00:13:56;9.93;;;6.05;;
54139;SDS011;40046;53.254;5.900;2023-12-14T00:16:22;11.98;;;5.13;;
54139;SDS011;40046;53.254;5.900;2023-12-14T00:18:48;11.30;;;5.00;;
54139;SDS011;40046;53.254;5.900;2023-12-14T00:21:14;12.07;;;4.28;;
54139;SDS011;40046;53.254;5.900;2023-12-14T00:23:40;10.65;;;4.32;;
54139;SDS011;40046;53.254;5.900;2023-12-14T00:26:07;8.63;;;4.20;;
54139;SDS011;40046;53.254;5.900;2023-12-14T00:28:33;8.98;;;3.78;;
54139;SDS011;40046;53.254;5.900;2023-12-14T00:30:59;9.20;;;4.10;;
54139;SDS011;40046;53.254;5.900;2023-12-14T00:33:25;12.30;;;4.68;;
54139;SDS011;40046;53.254;5.900;2023-12-14T00:35:51;8.32;;;4.47;;
54139;SDS011;40046;53.254;5.900;2023-12-14T00:38:17;8.85;;;5.10;;
54139;SDS011;40046;53.254;5.900;2023-12-14T00:40:43;15.70;;;5.93;;
54139;SDS011;40046;53.254;5.900;2023-12-14T00:43:10;9.75;;;5.10;;
54139;SDS011;40046;53.254;5.900;2023-12-14T00:45:37;7.45;;;5.28;;
54139;SDS011;40046;53.254;5.900;2023-12-14T00:48:03;8.35;;;4.50;;
54139;SDS011;40046;53.254;5.900;2023-12-14T00:50:29;7.82;;;4.30;;
54139;SDS011;40046;53.254;5.900;2023-12-14T00:52:55;7.90;;;4.53;;
54139;SDS011;40046;53.254;5.900;2023-12-14T00:55:21;6.28;;;3.85;;
54139;SDS011;40046;53.254;5.900;2023-12-14T00:57:47;6.72;;;3.65;;
54139;SDS011;40046;53.254;5.900;2023-12-14T01:00:14;7.28;;;3.97;;
54139;SDS011;40046;53.254;5.900;2023-12-14T01:02:40;10.20;;;4.43;;
54139;SDS011;40046;53.254;5.900;2023-12-14T01:05:06;6.93;;;4.38;;
54139;SDS011;40046;53.254;5.900;2023-12-14T01:07:32;5.82;;;3.58;;
54139;SDS011;40046;53.254;5.900;2023-12-14T01:09:58;6.93;;;3.88;;
54139;SDS011;40046;53.254;5.900;2023-12-14T01:12:24;6.57;;;4.28;;
54139;SDS011;40046;53.254;5.900;2023-12-14T01:14:50;10.02;;;4.50;;
54139;SDS011;40046;53.254;5.900;2023-12-14T01:17:17;6.95;;;4.32;;
54139;SDS011;40046;53.254;5.900;2023-12-14T01:19:43;7.35;;;4.75;;
54139;SDS011;40046;53.254;5.900;2023-12-14T01:22:10;6.35;;;4.18;;
54139;SDS011;40046;53.254;5.900;2023-12-14T01:24:36;7.57;;;4.47;;
54139;SDS011;40046;53.254;5.900;2023-12-14T01:27:02;9.50;;;5.20;;
54139;SDS011;40046;53.254;5.900;2023-12-14T01:29:28;11.48;;;5.65;;
54139;SDS011;40046;53.254;5.900;2023-12-14T01:31:54;10.45;;;5.38;;
54139;SDS011;40046;53.254;5.900;2023-12-14T01:34:20;11.02;;;6.00;;
54139;SDS011;40046;53.254;5.900;2023-12-14T01:36:46;12.73;;;5.97;;
54139;SDS011;40046;53.254;5.900;2023-12-14T01:39:12;11.98;;;5.07;;
54139;SDS011;40046;53.254;5.900;2023-12-14T01:41:39;10.80;;;5.97;;
54139;SDS011;40046;53.254;5.900;2023-12-14T01:44:05;15.18;;;5.63;;
54139;SDS011;40046;53.254;5.900;2023-12-14T01:46:31;14.18;;;6.10;;
54139;SDS011;40046;53.254;5.900;2023-12-14T01:48:57;14.70;;;7.63;;
54139;SDS011;40046;53.254;5.900;2023-12-14T01:51:23;11.40;;;6.07;;
54139;SDS011;40046;53.254;5.900;2023-12-14T01:53:49;11.70;;;7.00;;
54139;SDS011;40046;53.254;5.900;2023-12-14T01:56:15;14.60;;;6.10;;
54139;SDS011;40046;53.254;5.900;2023-12-14T01:58:41;8.85;;;5.25;;
54139;SDS011;40046;53.254;5.900;2023-12-14T02:01:16;16.95;;;7.38;;
54139;SDS011;40046;53.254;5.900;2023-12-14T02:03:44;10.60;;;5.38;;
54139;SDS011;40046;53.254;5.900;2023-12-14T02:06:11;13.02;;;5.75;;
54139;SDS011;40046;53.254;5.900;2023-12-14T02:08:37;12.05;;;6.40;;
54139;SDS011;40046;53.254;5.900;2023-12-14T02:11:03;11.18;;;6.70;;
54139;SDS011;40046;53.254;5.900;2023-12-14T02:13:29;11.25;;;6.78;;
54139;SDS011;40046;53.254;5.900;2023-12-14T02:15:55;13.95;;;6.75;;
54139;SDS011;40046;53.254;5.900;2023-12-14T02:18:22;10.73;;;6.15;;
54139;SDS011;40046;53.254;5.900;2023-12-14T02:20:48;9.50;;;6.00;;
54139;SDS011;40046;53.254;5.900;2023-12-14T02:23:14;11.00;;;5.63;;
54139;SDS011;40046;53.254;5.900;2023-12-14T02:25:40;12.15;;;6.35;;
54139;SDS011;40046;53.254;5.900;2023-12-14T02:28:06;10.85;;;5.60;;
54139;SDS011;40046;53.254;5.900;2023-12-14T02:30:32;11.57;;;6.45;;
54139;SDS011;40046;53.254;5.900;2023-12-14T02:32:58;9.38;;;6.50;;
54139;SDS011;40046;53.254;5.900;2023-12-14T02:35:24;12.88;;;6.68;;
54139;SDS011;40046;53.254;5.900;2023-12-14T02:37:50;13.20;;;6.78;;
54139;SDS011;40046;53.254;5.900;2023-12-14T02:40:17;15.75;;;5.85;;
54139;SDS011;40046;53.254;5.900;2023-12-14T02:42:43;12.07;;;6.53;;
54139;SDS011;40046;53.254;5.900;2023-12-14T02:45:09;14.02;;;5.70;;
54139;SDS011;40046;53.254;5.900;2023-12-14T02:47:35;12.20;;;6.22;;
54139;SDS011;40046;53.254;5.900;2023-12-14T02:50:01;16.50;;;6.82;;
54139;SDS011;40046;53.254;5.900;2023-12-14T02:52:28;11.02;;;6.35;;
54139;SDS011;40046;53.254;5.900;2023-12-14T02:54:54;15.05;;;6.32;;
54139;SDS011;40046;53.254;5.900;2023-12-14T02:57:20;14.07;;;8.00;;
54139;SDS011;40046;53.254;5.900;2023-12-14T02:59:46;20.98;;;10.07;;
54139;SDS011;40046;53.254;5.900;2023-12-14T03:02:12;17.85;;;7.35;;
54139;SDS011;40046;53.254;5.900;2023-12-14T03:04:39;15.63;;;8.63;;
54139;SDS011;40046;53.254;5.900;2023-12-14T03:07:05;19.75;;;8.02;;
54139;SDS011;40046;53.254;5.900;2023-12-14T03:09:31;15.57;;;7.32;;
54139;SDS011;40046;53.254;5.900;2023-12-14T03:11:58;14.98;;;8.70;;
54139;SDS011;40046;53.254;5.900;2023-12-14T03:14:25;15.88;;;8.60;;
54139;SDS011;40046;53.254;5.900;2023-12-14T03:16:51;19.77;;;9.10;;
54139;SDS011;40046;53.254;5.900;2023-12-14T03:19:17;19.67;;;8.20;;
54139;SDS011;40046;53.254;5.900;2023-12-14T03:21:44;10.70;;;8.07;;
54139;SDS011;40046;53.254;5.900;2023-12-14T03:24:10;17.05;;;8.50;;
54139;SDS011;40046;53.254;5.900;2023-12-14T03:26:36;17.42;;;8.07;;
54139;SDS011;40046;53.254;5.900;2023-12-14T03:29:02;13.50;;;8.48;;
54139;SDS011;40046;53.254;5.900;2023-12-14T03:31:28;17.35;;;7.93;;
54139;SDS011;40046;53.254;5.900;2023-12-14T03:33:55;18.17;;;8.48;;
54139;SDS011;40046;53.254;5.900;2023-12-14T03:36:21;17.80;;;8.18;;
54139;SDS011;40046;53.254;5.900;2023-12-14T03:38:51;16.48;;;7.75;;
54139;SDS011;40046;53.254;5.900;2023-12-14T03:41:17;15.32;;;7.80;;
54139;SDS011;40046;53.254;5.900;2023-12-14T03:43:43;11.02;;;7.72;;
54139;SDS011;40046;53.254;5.900;2023-12-14T03:46:09;13.48;;;7.88;;
54139;SDS011;40046;53.254;5.900;2023-12-14T03:48:36;12.15;;;7.50;;
54139;SDS011;40046;53.254;5.900;2023-12-14T03:51:02;13.23;;;8.35;;
54139;SDS011;40046;53.254;5.900;2023-12-14T03:53:29;15.85;;;8.88;;
54139;SDS011;40046;53.254;5.900;2023-12-14T03:55:55;22.67;;;8.85;;
54139;SDS011;40046;53.254;5.900;2023-12-14T03:58:21;12.68;;;7.18;;
54139;SDS011;40046;53.254;5.900;2023-12-14T04:00:47;13.52;;;7.85;;
54139;SDS011;40046;53.254;5.900;2023-12-14T04:03:13;13.75;;;7.65;;
54139;SDS011;40046;53.254;5.900;2023-12-14T04:05:39;18.83;;;7.57;;
54139;SDS011;40046;53.254;5.900;2023-12-14T04:08:06;17.42;;;8.02;;
54139;SDS011;40046;53.254;5.900;2023-12-14T04:10:32;20.38;;;8.45;;
54139;SDS011;40046;53.254;5.900;2023-12-14T04:12:58;14.93;;;8.27;;
54139;SDS011;40046;53.254;5.900;2023-12-14T04:15:24;14.13;;;8.65;;
54139;SDS011;40046;53.254;5.900;2023-12-14T04:17:51;17.80;;;8.20;;
54139;SDS011;40046;53.254;5.900;2023-12-14T04:20:17;12.63;;;8.98;;
54139;SDS011;40046;53.254;5.900;2023-12-14T04:22:43;14.43;;;9.30;;
54139;SDS011;40046;53.254;5.900;2023-12-14T04:25:11;20.90;;;8.55;;
54139;SDS011;40046;53.254;5.900;2023-12-14T04:27:37;17.58;;;7.75;;
54139;SDS011;40046;53.254;5.900;2023-12-14T04:30:03;14.73;;;8.48;;
54139;SDS011;40046;53.254;5.900;2023-12-14T04:32:29;12.00;;;7.43;;
54139;SDS011;40046;53.254;5.900;2023-12-14T04:34:56;20.42;;;7.75;;
54139;SDS011;40046;53.254;5.900;2023-12-14T04:37:22;16.15;;;9.63;;
54139;SDS011;40046;53.254;5.900;2023-12-14T04:39:48;19.48;;;8.30;;
54139;SDS011;40046;53.254;5.900;2023-12-14T04:42:14;14.70;;;8.23;;
54139;SDS011;40046;53.254;5.900;2023-12-14T04:44:40;16.83;;;8.55;;
54139;SDS011;40046;53.254;5.900;2023-12-14T04:47:06;14.77;;;8.20;;
54139;SDS011;40046;53.254;5.900;2023-12-14T04:49:33;16.83;;;9.07;;
54139;SDS011;40046;53.254;5.900;2023-12-14T04:51:59;26.45;;;9.20;;
54139;SDS011;40046;53.254;5.900;2023-12-14T04:54:25;17.27;;;8.00;;
54139;SDS011;40046;53.254;5.900;2023-12-14T04:56:51;14.48;;;8.30;;
54139;SDS011;40046;53.254;5.900;2023-12-14T04:59:18;15.18;;;7.90;;
54139;SDS011;40046;53.254;5.900;2023-12-14T05:01:44;12.75;;;7.72;;
54139;SDS011;40046;53.254;5.900;2023-12-14T05:04:10;15.93;;;8.75;;
54139;SDS011;40046;53.254;5.900;2023-12-14T05:06:37;16.63;;;9.02;;
54139;SDS011;40046;53.254;5.900;2023-12-14T05:09:03;19.75;;;9.32;;
54139;SDS011;40046;53.254;5.900;2023-12-14T05:11:31;18.00;;;8.93;;
54139;SDS011;40046;53.254;5.900;2023-12-14T05:13:57;14.38;;;8.38;;
54139;SDS011;40046;53.254;5.900;2023-12-14T05:16:23;15.75;;;8.77;;
54139;SDS011;40046;53.254;5.900;2023-12-14T05:18:52;19.42;;;8.15;;
54139;SDS011;40046;53.254;5.900;2023-12-14T05:21:18;15.85;;;7.95;;
54139;SDS011;40046;53.254;5.900;2023-12-14T05:23:45;15.70;;;8.73;;
54139;SDS011;40046;53.254;5.900;2023-12-14T05:26:11;17.35;;;8.02;;
54139;SDS011;40046;53.254;5.900;2023-12-14T05:28:37;21.70;;;8.90;;
54139;SDS011;40046;53.254;5.900;2023-12-14T05:31:03;13.63;;;7.55;;
54139;SDS011;40046;53.254;5.900;2023-12-14T05:33:29;16.70;;;8.50;;
54139;SDS011;40046;53.254;5.900;2023-12-14T05:35:56;23.58;;;9.60;;
54139;SDS011;40046;53.254;5.900;2023-12-14T05:38:22;16.33;;;8.82;;
54139;SDS011;40046;53.254;5.900;2023-12-14T05:40:49;13.75;;;7.90;;
54139;SDS011;40046;53.254;5.900;2023-12-14T05:43:15;18.35;;;8.57;;
54139;SDS011;40046;53.254;5.900;2023-12-14T05:45:41;14.38;;;8.88;;
54139;SDS011;40046;53.254;5.900;2023-12-14T05:48:07;19.83;;;8.45;;
54139;SDS011;40046;53.254;5.900;2023-12-14T05:50:33;17.60;;;8.90;;
54139;SDS011;40046;53.254;5.900;2023-12-14T05:52:59;21.30;;;7.40;;
54139;SDS011;40046;53.254;5.900;2023-12-14T05:55:26;17.10;;;8.88;;
54139;SDS011;40046;53.254;5.900;2023-12-14T05:57:52;16.50;;;9.30;;
54139;SDS011;40046;53.254;5.900;2023-12-14T06:00:20;15.82;;;9.10;;
54139;SDS011;40046;53.254;5.900;2023-12-14T06:02:46;18.67;;;9.00;;
54139;SDS011;40046;53.254;5.900;2023-12-14T06:05:12;15.48;;;8.57;;
54139;SDS011;40046;53.254;5.900;2023-12-14T06:07:39;17.13;;;10.45;;
54139;SDS011;40046;53.254;5.900;2023-12-14T06:10:05;19.85;;;8.52;;
54139;SDS011;40046;53.254;5.900;2023-12-14T06:12:31;19.02;;;9.57;;
54139;SDS011;40046;53.254;5.900;2023-12-14T06:14:57;15.95;;;8.77;;
54139;SDS011;40046;53.254;5.900;2023-12-14T06:17:23;16.85;;;8.90;;
54139;SDS011;40046;53.254;5.900;2023-12-14T06:19:50;15.70;;;8.38;;
54139;SDS011;40046;53.254;5.900;2023-12-14T06:22:16;17.73;;;8.95;;
54139;SDS011;40046;53.254;5.900;2023-12-14T06:24:42;18.60;;;11.70;;
54139;SDS011;40046;53.254;5.900;2023-12-14T06:27:08;14.57;;;8.60;;
54139;SDS011;40046;53.254;5.900;2023-12-14T06:29:34;14.07;;;8.30;;
54139;SDS011;40046;53.254;5.900;2023-12-14T06:32:00;16.95;;;8.80;;
54139;SDS011;40046;53.254;5.900;2023-12-14T06:34:26;23.67;;;11.40;;
54139;SDS011;40046;53.254;5.900;2023-12-14T06:36:52;14.35;;;8.10;;
54139;SDS011;40046;53.254;5.900;2023-12-14T06:39:19;11.75;;;8.32;;
54139;SDS011;40046;53.254;5.900;2023-12-14T06:41:45;15.55;;;8.60;;
54139;SDS011;40046;53.254;5.900;2023-12-14T06:44:11;14.48;;;9.07;;
54139;SDS011;40046;53.254;5.900;2023-12-14T06:46:37;15.45;;;8.48;;
54139;SDS011;40046;53.254;5.900;2023-12-14T06:49:03;14.98;;;9.00;;
54139;SDS011;40046;53.254;5.900;2023-12-14T06:51:29;18.67;;;9.50;;
54139;SDS011;40046;53.254;5.900;2023-12-14T06:53:55;18.23;;;9.48;;
54139;SDS011;40046;53.254;5.900;2023-12-14T06:56:21;15.57;;;9.00;;
54139;SDS011;40046;53.254;5.900;2023-12-14T06:58:48;17.75;;;10.02;;
54139;SDS011;40046;53.254;5.900;2023-12-14T07:01:15;18.33;;;9.57;;
54139;SDS011;40046;53.254;5.900;2023-12-14T07:03:41;17.23;;;10.05;;
54139;SDS011;40046;53.254;5.900;2023-12-14T07:06:15;18.27;;;10.95;;
54139;SDS011;40046;53.254;5.900;2023-12-14T07:08:42;17.77;;;8.10;;
54139;SDS011;40046;53.254;5.900;2023-12-14T07:11:09;15.73;;;8.48;;
54139;SDS011;40046;53.254;5.900;2023-12-14T07:13:35;12.20;;;8.27;;
54139;SDS011;40046;53.254;5.900;2023-12-14T07:16:08;15.85;;;9.30;;
54139;SDS011;40046;53.254;5.900;2023-12-14T07:18:34;19.45;;;9.50;;
54139;SDS011;40046;53.254;5.900;2023-12-14T07:21:01;19.55;;;10.75;;
54139;SDS011;40046;53.254;5.900;2023-12-14T07:23:27;16.20;;;9.00;;
54139;SDS011;40046;53.254;5.900;2023-12-14T07:25:54;17.48;;;9.27;;
54139;SDS011;40046;53.254;5.900;2023-12-14T07:28:20;16.85;;;9.45;;
54139;SDS011;40046;53.254;5.900;2023-12-14T07:30:46;19.42;;;9.68;;
54139;SDS011;40046;53.254;5.900;2023-12-14T07:33:13;23.27;;;9.77;;
54139;SDS011;40046;53.254;5.900;2023-12-14T07:35:39;15.70;;;10.38;;
54139;SDS011;40046;53.254;5.900;2023-12-14T07:38:05;19.85;;;11.07;;
54139;SDS011;40046;53.254;5.900;2023-12-14T07:40:31;15.43;;;9.27;;
54139;SDS011;40046;53.254;5.900;2023-12-14T07:42:57;18.65;;;11.95;;
54139;SDS011;40046;53.254;5.900;2023-12-14T07:45:23;18.98;;;11.43;;
54139;SDS011;40046;53.254;5.900;2023-12-14T07:47:50;18.67;;;10.77;;
54139;SDS011;40046;53.254;5.900;2023-12-14T07:50:16;16.33;;;10.88;;
54139;SDS011;40046;53.254;5.900;2023-12-14T07:52:42;15.75;;;10.50;;
54139;SDS011;40046;53.254;5.900;2023-12-14T07:55:08;14.68;;;10.43;;
54139;SDS011;40046;53.254;5.900;2023-12-14T07:57:34;26.23;;;12.82;;
54139;SDS011;40046;53.254;5.900;2023-12-14T08:00:01;22.88;;;14.82;;
54139;SDS011;40046;53.254;5.900;2023-12-14T08:02:31;19.98;;;12.85;;
54139;SDS011;40046;53.254;5.900;2023-12-14T08:04:57;20.15;;;11.88;;
54139;SDS011;40046;53.254;5.900;2023-12-14T08:07:23;16.40;;;10.82;;
54139;SDS011;40046;53.254;5.900;2023-12-14T08:09:57;18.65;;;11.13;;
54139;SDS011;40046;53.254;5.900;2023-12-14T08:12:23;20.42;;;13.55;;
54139;SDS011;40046;53.254;5.900;2023-12-14T08:14:50;29.27;;;13.30;;
54139;SDS011;40046;53.254;5.900;2023-12-14T08:17:16;18.13;;;12.23;;
54139;SDS011;40046;53.254;5.900;2023-12-14T08:19:42;20.98;;;12.30;;
54139;SDS011;40046;53.254;5.900;2023-12-14T08:22:09;20.83;;;13.15;;
54139;SDS011;40046;53.254;5.900;2023-12-14T08:24:37;21.92;;;12.55;;
54139;SDS011;40046;53.254;5.900;2023-12-14T08:27:03;19.42;;;12.18;;
54139;SDS011;40046;53.254;5.900;2023-12-14T08:29:30;18.40;;;12.90;;
54139;SDS011;40046;53.254;5.900;2023-12-14T08:31:56;19.77;;;12.60;;
54139;SDS011;40046;53.254;5.900;2023-12-14T08:34:24;22.98;;;16.08;;
54139;SDS011;40046;53.254;5.900;2023-12-14T08:36:50;20.45;;;13.18;;
54139;SDS011;40046;53.254;5.900;2023-12-14T08:39:17;21.13;;;12.70;;
54139;SDS011;40046;53.254;5.900;2023-12-14T08:41:43;23.15;;;12.73;;
54139;SDS011;40046;53.254;5.900;2023-12-14T08:44:10;19.33;;;11.95;;
54139;SDS011;40046;53.254;5.900;2023-12-14T08:46:42;19.70;;;13.77;;
54139;SDS011;40046;53.254;5.900;2023-12-14T08:49:10;24.83;;;14.33;;
54139;SDS011;40046;53.254;5.900;2023-12-14T08:51:36;24.00;;;14.32;;
54139;SDS011;40046;53.254;5.900;2023-12-14T08:54:03;17.45;;;11.73;;
54139;SDS011;40046;53.254;5.900;2023-12-14T08:56:29;24.23;;;13.07;;
54139;SDS011;40046;53.254;5.900;2023-12-14T08:58:56;16.80;;;10.77;;
54139;SDS011;40046;53.254;5.900;2023-12-14T09:01:24;18.38;;;11.45;;
54139;SDS011;40046;53.254;5.900;2023-12-14T09:03:50;18.67;;;11.43;;
54139;SDS011;40046;53.254;5.900;2023-12-14T09:06:17;19.83;;;10.90;;
54139;SDS011;40046;53.254;5.900;2023-12-14T09:08:46;26.25;;;14.25;;
54139;SDS011;40046;53.254;5.900;2023-12-14T09:11:12;19.30;;;11.50;;
54139;SDS011;40046;53.254;5.900;2023-12-14T09:13:40;22.77;;;12.10;;
54139;SDS011;40046;53.254;5.900;2023-12-14T09:16:07;17.52;;;10.80;;
54139;SDS011;40046;53.254;5.900;2023-12-14T09:18:33;14.60;;;10.00;;
54139;SDS011;40046;53.254;5.900;2023-12-14T09:20:59;18.23;;;10.60;;
54139;SDS011;40046;53.254;5.900;2023-12-14T09:23:25;15.52;;;10.00;;
54139;SDS011;40046;53.254;5.900;2023-12-14T09:25:52;20.35;;;10.82;;
54139;SDS011;40046;53.254;5.900;2023-12-14T09:28:18;16.60;;;10.13;;
54139;SDS011;40046;53.254;5.900;2023-12-14T09:30:44;21.35;;;10.82;;
54139;SDS011;40046;53.254;5.900;2023-12-14T09:33:11;18.45;;;10.77;;
54139;SDS011;40046;53.254;5.900;2023-12-14T09:35:37;27.00;;;10.45;;
54139;SDS011;40046;53.254;5.900;2023-12-14T09:38:03;19.17;;;12.05;;
54139;SDS011;40046;53.254;5.900;2023-12-14T09:40:30;18.35;;;10.45;;
54139;SDS011;40046;53.254;5.900;2023-12-14T09:42:56;18.02;;;11.48;;
54139;SDS011;40046;53.254;5.900;2023-12-14T09:45:28;17.42;;;10.88;;
54139;SDS011;40046;53.254;5.900;2023-12-14T09:47:58;18.20;;;11.48;;
54139;SDS011;40046;53.254;5.900;2023-12-14T09:50:25;20.50;;;12.20;;
54139;SDS011;40046;53.254;5.900;2023-12-14T09:52:52;22.58;;;11.57;;
54139;SDS011;40046;53.254;5.900;2023-12-14T09:55:18;17.38;;;11.10;;
54139;SDS011;40046;53.254;5.900;2023-12-14T09:57:44;21.30;;;12.73;;
54139;SDS011;40046;53.254;5.900;2023-12-14T10:00:10;20.70;;;11.52;;
54139;SDS011;40046;53.254;5.900;2023-12-14T10:02:39;25.08;;;12.35;;
54139;SDS011;40046;53.254;5.900;2023-12-14T10:05:08;20.30;;;11.57;;
54139;SDS011;40046;53.254;5.900;2023-12-14T10:07:42;20.40;;;11.07;;
54139;SDS011;40046;53.254;5.900;2023-12-14T10:10:09;20.30;;;11.80;;
54139;SDS011;40046;53.254;5.900;2023-12-14T10:12:50;20.90;;;11.82;;
54139;SDS011;40046;53.254;5.900;2023-12-14T10:15:16;17.48;;;11.65;;
54139;SDS011;40046;53.254;5.900;2023-12-14T10:17:42;18.70;;;11.65;;
54139;SDS011;40046;53.254;5.900;2023-12-14T10:20:09;23.55;;;12.05;;
54139;SDS011;40046;53.254;5.900;2023-12-14T10:22:35;23.45;;;11.43;;
54139;SDS011;40046;53.254;5.900;2023-12-14T10:25:02;18.48;;;11.57;;
54139;SDS011;40046;53.254;5.900;2023-12-14T10:27:30;22.65;;;11.40;;
54139;SDS011;40046;53.254;5.900;2023-12-14T10:29:57;19.10;;;11.35;;
54139;SDS011;40046;53.254;5.900;2023-12-14T10:32:24;19.27;;;12.30;;
54139;SDS011;40046;53.254;5.900;2023-12-14T10:34:50;17.00;;;11.82;;
54139;SDS011;40046;53.254;5.900;2023-12-14T10:37:16;18.98;;;10.52;;
54139;SDS011;40046;53.254;5.900;2023-12-14T10:39:42;17.30;;;10.77;;
54139;SDS011;40046;53.254;5.900;2023-12-14T10:42:09;15.57;;;10.52;;
54139;SDS011;40046;53.254;5.900;2023-12-14T10:44:36;16.42;;;10.63;;
54139;SDS011;40046;53.254;5.900;2023-12-14T10:47:03;18.95;;;11.27;;
54139;SDS011;40046;53.254;5.900;2023-12-14T10:49:29;17.98;;;11.10;;
54139;SDS011;40046;53.254;5.900;2023-12-14T10:51:56;17.73;;;10.45;;
54139;SDS011;40046;53.254;5.900;2023-12-14T10:54:23;15.40;;;10.05;;
54139;SDS011;40046;53.254;5.900;2023-12-14T10:56:53;15.43;;;10.05;;
54139;SDS011;40046;53.254;5.900;2023-12-14T10:59:21;17.27;;;10.15;;
54139;SDS011;40046;53.254;5.900;2023-12-14T11:01:51;19.95;;;11.18;;
54139;SDS011;40046;53.254;5.900;2023-12-14T11:04:18;17.95;;;10.50;;
54139;SDS011;40046;53.254;5.900;2023-12-14T11:06:45;16.73;;;12.23;;
54139;SDS011;40046;53.254;5.900;2023-12-14T11:09:13;19.52;;;14.00;;
54139;SDS011;40046;53.254;5.900;2023-12-14T11:11:43;21.90;;;11.65;;
54139;SDS011;40046;53.254;5.900;2023-12-14T11:14:13;20.42;;;12.43;;
54139;SDS011;40046;53.254;5.900;2023-12-14T11:16:43;19.02;;;12.23;;
54139;SDS011;40046;53.254;5.900;2023-12-14T11:22:33;20.73;;;11.77;;
54139;SDS011;40046;53.254;5.900;2023-12-14T11:24:36;18.50;;;12.00;;
54139;SDS011;40046;53.254;5.900;2023-12-14T11:27:08;15.55;;;11.05;;
54139;SDS011;40046;53.254;5.900;2023-12-14T11:29:38;19.65;;;11.68;;
54139;SDS011;40046;53.254;5.900;2023-12-14T11:32:06;14.73;;;9.73;;
54139;SDS011;40046;53.254;5.900;2023-12-14T11:34:33;23.48;;;11.98;;
54139;SDS011;40046;53.254;5.900;2023-12-14T11:36:59;20.17;;;11.50;;
54139;SDS011;40046;53.254;5.900;2023-12-14T11:39:29;14.80;;;10.15;;
54139;SDS011;40046;53.254;5.900;2023-12-14T11:41:59;16.05;;;9.70;;
54139;SDS011;40046;53.254;5.900;2023-12-14T11:44:25;13.13;;;9.30;;
54139;SDS011;40046;53.254;5.900;2023-12-14T11:46:51;17.27;;;9.18;;
54139;SDS011;40046;53.254;5.900;2023-12-14T11:49:17;15.10;;;9.70;;
54139;SDS011;40046;53.254;5.900;2023-12-14T11:51:45;16.92;;;10.93;;
54139;SDS011;40046;53.254;5.900;2023-12-14T11:54:12;18.15;;;10.75;;
54139;SDS011;40046;53.254;5.900;2023-12-14T11:56:39;14.65;;;9.40;;
54139;SDS011;40046;53.254;5.900;2023-12-14T11:59:05;17.20;;;9.63;;
54139;SDS011;40046;53.254;5.900;2023-12-14T12:01:31;15.10;;;9.23;;
54139;SDS011;40046;53.254;5.900;2023-12-14T12:04:03;18.90;;;9.55;;
54139;SDS011;40046;53.254;5.900;2023-12-14T12:06:33;21.30;;;11.00;;
54139;SDS011;40046;53.254;5.900;2023-12-14T12:09:00;18.27;;;10.68;;
54139;SDS011;40046;53.254;5.900;2023-12-14T12:11:27;15.15;;;10.10;;
54139;SDS011;40046;53.254;5.900;2023-12-14T12:13:54;15.90;;;10.88;;
54139;SDS011;40046;53.254;5.900;2023-12-14T12:16:21;12.98;;;9.07;;
54139;SDS011;40046;53.254;5.900;2023-12-14T12:18:47;17.75;;;10.43;;
54139;SDS011;40046;53.254;5.900;2023-12-14T12:21:15;16.92;;;10.25;;
54139;SDS011;40046;53.254;5.900;2023-12-14T12:23:41;16.67;;;11.00;;
54139;SDS011;40046;53.254;5.900;2023-12-14T12:26:08;18.50;;;13.25;;
54139;SDS011;40046;53.254;5.900;2023-12-14T12:28:34;16.70;;;10.82;;
54139;SDS011;40046;53.254;5.900;2023-12-14T12:31:00;13.50;;;10.10;;
54139;SDS011;40046;53.254;5.900;2023-12-14T12:33:27;14.25;;;10.10;;
54139;SDS011;40046;53.254;5.900;2023-12-14T12:35:53;16.08;;;9.77;;
54139;SDS011;40046;53.254;5.900;2023-12-14T12:38:20;15.63;;;10.35;;
54139;SDS011;40046;53.254;5.900;2023-12-14T12:40:46;17.60;;;9.63;;
54139;SDS011;40046;53.254;5.900;2023-12-14T12:43:13;15.23;;;9.63;;
54139;SDS011;40046;53.254;5.900;2023-12-14T12:45:42;16.88;;;9.93;;
54139;SDS011;40046;53.254;5.900;2023-12-14T12:48:08;12.52;;;9.45;;
54139;SDS011;40046;53.254;5.900;2023-12-14T12:50:35;12.88;;;8.70;;
54139;SDS011;40046;53.254;5.900;2023-12-14T12:53:01;16.15;;;9.65;;
54139;SDS011;40046;53.254;5.900;2023-12-14T12:55:28;17.92;;;10.02;;
54139;SDS011;40046;53.254;5.900;2023-12-14T12:57:54;16.83;;;9.13;;
54139;SDS011;40046;53.254;5.900;2023-12-14T13:00:20;14.85;;;10.13;;
54139;SDS011;40046;53.254;5.900;2023-12-14T13:02:48;18.25;;;11.10;;
54139;SDS011;40046;53.254;5.900;2023-12-14T13:05:14;12.15;;;9.65;;
54139;SDS011;40046;53.254;5.900;2023-12-14T13:07:43;15.45;;;9.73;;
54139;SDS011;40046;53.254;5.900;2023-12-14T13:10:10;15.65;;;9.65;;
54139;SDS011;40046;53.254;5.900;2023-12-14T13:12:36;20.20;;;10.27;;
54139;SDS011;40046;53.254;5.900;2023-12-14T13:15:02;16.55;;;10.32;;
54139;SDS011;40046;53.254;5.900;2023-12-14T13:17:28;19.55;;;10.20;;
54139;SDS011;40046;53.254;5.900;2023-12-14T13:19:55;18.70;;;10.52;;
54139;SDS011;40046;53.254;5.900;2023-12-14T13:22:21;12.93;;;9.18;;
54139;SDS011;40046;53.254;5.900;2023-12-14T13:24:47;13.27;;;9.40;;
54139;SDS011;40046;53.254;5.900;2023-12-14T13:27:14;17.05;;;8.48;;
54139;SDS011;40046;53.254;5.900;2023-12-14T13:29:41;12.50;;;9.15;;
54139;SDS011;40046;53.254;5.900;2023-12-14T13:32:07;12.05;;;8.07;;
54139;SDS011;40046;53.254;5.900;2023-12-14T13:34:33;17.75;;;8.90;;
54139;SDS011;40046;53.254;5.900;2023-12-14T13:36:59;10.48;;;7.85;;
54139;SDS011;40046;53.254;5.900;2023-12-14T13:39:26;13.25;;;8.48;;
54139;SDS011;40046;53.254;5.900;2023-12-14T13:41:52;13.68;;;9.38;;
54139;SDS011;40046;53.254;5.900;2023-12-14T13:44:19;14.80;;;9.23;;
54139;SDS011;40046;53.254;5.900;2023-12-14T13:46:45;14.00;;;9.02;;
54139;SDS011;40046;53.254;5.900;2023-12-14T13:49:12;10.60;;;7.90;;
54139;SDS011;40046;53.254;5.900;2023-12-14T13:51:38;13.02;;;8.15;;
54139;SDS011;40046;53.254;5.900;2023-12-14T13:54:04;11.63;;;7.70;;
54139;SDS011;40046;53.254;5.900;2023-12-14T13:56:30;12.07;;;9.43;;
54139;SDS011;40046;53.254;5.900;2023-12-14T13:58:56;14.93;;;8.75;;
54139;SDS011;40046;53.254;5.900;2023-12-14T14:01:22;14.00;;;8.75;;
54139;SDS011;40046;53.254;5.900;2023-12-14T14:03:49;10.55;;;7.63;;
54139;SDS011;40046;53.254;5.900;2023-12-14T14:06:15;13.27;;;8.35;;
54139;SDS011;40046;53.254;5.900;2023-12-14T14:08:42;12.32;;;8.10;;
54139;SDS011;40046;53.254;5.900;2023-12-14T14:11:08;10.93;;;8.57;;
54139;SDS011;40046;53.254;5.900;2023-12-14T14:13:34;11.32;;;7.50;;
54139;SDS011;40046;53.254;5.900;2023-12-14T14:16:00;11.35;;;8.57;;
54139;SDS011;40046;53.254;5.900;2023-12-14T14:18:27;12.23;;;8.75;;
54139;SDS011;40046;53.254;5.900;2023-12-14T14:20:53;14.82;;;8.32;;
54139;SDS011;40046;53.254;5.900;2023-12-14T14:23:19;14.15;;;9.80;;
54139;SDS011;40046;53.254;5.900;2023-12-14T14:25:45;11.45;;;8.30;;
54139;SDS011;40046;53.254;5.900;2023-12-14T14:28:11;13.32;;;8.50;;
54139;SDS011;40046;53.254;5.900;2023-12-14T14:30:37;14.35;;;8.93;;